Time;durP1;ratioP1;P1;durP2;ratioP2;P2;SDS_P1;SDS_P2;PMS_P1;PMS_P2;Temp;Humidity;BMP_temperature;BMP_pressure;BME280_temperature;BME280_humidity;BME280_pressure;Samples;Min_cycle;Max_cycle;Signal;HPM_P1;HPM_P2
2021/03/26 00:00:50;;;;;;;10.32;3.70;;;12.10;61.10;;;;;;5023578;28;20030;-70
2021/03/26 00:03:21;;;;;;;6.18;2.97;;;12.10;61.10;;;;;;5023322;28;20139;-70
2021/03/26 00:05:50;;;;;;;6.90;3.42;;;12.10;61.20;;;;;;5024982;28;20464;-69
2021/03/26 00:08:17;;;;;;;6.78;4.15;;;12.10;61.20;;;;;;5025099;28;20025;-70
2021/03/26 00:10:44;;;;;;;7.38;3.80;;;12.10;61.20;;;;;;5025449;28;20032;-69
2021/03/26 00:13:10;;;;;;;7.38;3.13;;;12.10;61.30;;;;;;5025205;28;20076;-69
2021/03/26 00:15:37;;;;;;;8.20;2.92;;;12.10;61.30;;;;;;5024916;28;20100;-69
2021/03/26 00:18:04;;;;;;;6.88;3.60;;;12.10;61.40;;;;;;5024643;28;20029;-69
2021/03/26 00:20:31;;;;;;;8.77;3.72;;;12.10;61.40;;;;;;5023617;28;20068;-68
2021/03/26 00:22:57;;;;;;;8.38;3.38;;;12.10;61.50;;;;;;5023801;28;20550;-69
2021/03/26 00:25:23;;;;;;;10.95;3.42;;;12.10;61.50;;;;;;5007055;28;20125;-69
2021/03/26 00:27:49;;;;;;;6.72;2.92;;;12.10;61.50;;;;;;5023025;28;20059;-70
2021/03/26 00:30:17;;;;;;;8.38;3.30;;;12.10;62.00;;;;;;5024324;28;20468;-69
2021/03/26 00:32:43;;;;;;;5.97;3.40;;;12.10;61.60;;;;;;5023738;28;20025;-69
2021/03/26 00:35:12;;;;;;;9.70;3.97;;;12.10;61.60;;;;;;5024582;28;20036;-71
2021/03/26 00:37:39;;;;;;;8.95;4.15;;;12.10;61.60;;;;;;5023545;28;20037;-70
2021/03/26 00:40:08;;;;;;;8.52;3.70;;;12.10;61.70;;;;;;5024361;28;20038;-70
2021/03/26 00:42:34;;;;;;;3.83;2.55;;;12.10;61.80;;;;;;5024649;28;20063;-69
2021/03/26 00:45:00;;;;;;;7.60;3.60;;;12.10;61.80;;;;;;5024873;28;20538;-71
2021/03/26 00:47:27;;;;;;;7.60;3.55;;;12.10;61.80;;;;;;5023371;28;20059;-70
2021/03/26 00:49:53;;;;;;;6.50;3.00;;;12.00;61.70;;;;;;5022985;28;20087;-71
2021/03/26 00:52:19;;;;;;;4.82;2.67;;;12.10;61.90;;;;;;5023171;28;20088;-70
2021/03/26 00:54:46;;;;;;;6.05;3.10;;;12.00;61.80;;;;;;5023179;28;20080;-70
2021/03/26 00:57:12;;;;;;;6.65;3.25;;;12.00;61.80;;;;;;5023677;28;20087;-70
2021/03/26 00:59:38;;;;;;;7.55;3.22;;;12.00;61.90;;;;;;5006412;28;20029;-70
2021/03/26 01:02:04;;;;;;;7.65;3.70;;;12.00;61.90;;;;;;5024183;28;20488;-70
2021/03/26 01:04:30;;;;;;;9.65;3.30;;;12.10;62.20;;;;;;5023004;28;20137;-70
2021/03/26 01:06:57;;;;;;;9.85;3.55;;;12.00;62.00;;;;;;5024416;28;20059;-70
2021/03/26 01:09:24;;;;;;;8.57;3.50;;;12.00;62.00;;;;;;5022827;28;20132;-70
2021/03/26 01:11:51;;;;;;;7.20;2.97;;;12.00;62.20;;;;;;5024287;28;20108;-70
2021/03/26 01:14:20;;;;;;;7.35;2.92;;;12.00;62.10;;;;;;5024662;28;20029;-69
2021/03/26 01:16:47;;;;;;;7.60;3.05;;;12.00;62.20;;;;;;5006881;28;20060;-70
2021/03/26 01:19:14;;;;;;;7.10;2.85;;;12.00;62.30;;;;;;5023295;28;20151;-70
2021/03/26 01:21:41;;;;;;;7.10;2.75;;;12.00;62.30;;;;;;5022882;28;20103;-70
2021/03/26 01:24:16;;;;;;;6.07;3.20;;;12.00;62.30;;;;;;5022608;28;20045;-70
2021/03/26 01:26:46;;;;;;;8.73;2.95;;;12.00;62.40;;;;;;5023085;28;20051;-70
2021/03/26 01:29:29;;;;;;;5.13;2.92;;;12.00;62.40;;;;;;5022727;28;20037;-71
2021/03/26 01:32:05;;;;;;;8.27;2.80;;;12.00;62.40;;;;;;5024359;28;20088;-70
2021/03/26 01:34:33;;;;;;;7.30;2.90;;;12.00;62.50;;;;;;5003030;28;20033;-70
2021/03/26 01:37:04;;;;;;;10.05;2.78;;;12.00;62.50;;;;;;5004441;28;20484;-70
2021/03/26 01:39:40;;;;;;;6.32;2.72;;;11.90;62.40;;;;;;5049022;28;20116;-69
2021/03/26 01:42:24;;;;;;;6.95;3.20;;;11.90;62.40;;;;;;5022835;28;20475;-69
2021/03/26 01:44:50;;;;;;;7.97;2.90;;;11.90;62.60;;;;;;5023774;28;20032;-70
2021/03/26 01:47:23;;;;;;;5.60;3.00;;;11.90;62.50;;;;;;5007636;28;20480;-70
2021/03/26 01:49:49;;;;;;;4.93;2.88;;;11.90;62.60;;;;;;5022455;28;20367;-70
2021/03/26 01:52:15;;;;;;;7.25;2.67;;;11.90;62.60;;;;;;5022553;28;20120;-70
2021/03/26 01:54:42;;;;;;;6.75;3.38;;;11.90;62.70;;;;;;5022365;28;20041;-70
2021/03/26 01:57:13;;;;;;;6.82;2.60;;;11.90;62.70;;;;;;5022555;28;20635;-70
2021/03/26 01:59:45;;;;;;;10.43;3.08;;;11.90;62.80;;;;;;5023706;28;20499;-69
2021/03/26 02:02:21;;;;;;;6.32;3.55;;;11.90;62.80;;;;;;5021757;28;20033;-69
2021/03/26 02:05:29;;;;;;;5.22;2.72;;;11.90;62.90;;;;;;5022010;28;20041;-69
2021/03/26 02:08:15;;;;;;;5.53;2.65;;;11.90;62.80;;;;;;5022637;28;20238;-69
2021/03/26 02:10:54;;;;;;;6.15;2.70;;;11.90;62.90;;;;;;5024129;28;20472;-69
2021/03/26 02:13:28;;;;;;;4.75;2.53;;;11.90;62.90;;;;;;5009514;28;20534;-69
2021/03/26 02:16:03;;;;;;;7.55;2.80;;;11.90;63.00;;;;;;5026047;28;20069;-69
2021/03/26 02:18:33;;;;;;;8.32;2.55;;;11.80;62.80;;;;;;5026022;28;20033;-69
2021/03/26 02:21:17;;;;;;;9.07;3.45;;;11.80;62.90;;;;;;5009286;28;20033;-70
2021/03/26 02:23:45;;;;;;;5.25;2.58;;;11.80;63.00;;;;;;5025117;28;20037;-68
2021/03/26 02:26:23;;;;;;;3.53;2.38;;;11.80;63.50;;;;;;5025739;28;20444;-69
2021/03/26 02:28:52;;;;;;;5.70;2.83;;;11.70;62.90;;;;;;5026154;28;20041;-70
2021/03/26 02:31:44;;;;;;;5.13;2.35;;;11.70;62.90;;;;;;5020786;23;20134;-69
2021/03/26 02:34:14;;;;;;;4.50;2.85;;;11.70;62.90;;;;;;4990322;28;20057;-70
2021/03/26 02:36:48;;;;;;;6.00;2.42;;;11.70;63.00;;;;;;4990384;28;20066;-70
2021/03/26 02:39:20;;;;;;;4.88;2.55;;;11.60;62.90;;;;;;4990023;28;20092;-69
2021/03/26 02:41:53;;;;;;;9.93;3.38;;;11.60;63.00;;;;;;4974813;28;20031;-69
2021/03/26 02:45:02;;;;;;;4.63;2.67;;;11.60;63.00;;;;;;4990128;28;20062;-71
2021/03/26 02:47:47;;;;;;;6.63;2.10;;;11.50;62.80;;;;;;5005739;23;20054;-80
2021/03/26 02:50:32;;;;;;;7.43;2.85;;;11.50;62.90;;;;;;5013089;28;20501;-80
2021/03/26 02:53:12;;;;;;;3.70;2.38;;;11.50;63.00;;;;;;5013001;28;20030;-81
2021/03/26 02:56:04;;;;;;;3.83;2.60;;;11.40;62.90;;;;;;5014058;28;20033;-82
2021/03/26 02:58:41;;;;;;;3.45;2.10;;;11.40;63.00;;;;;;5029465;28;20736;-82
2021/03/26 03:01:32;;;;;;;8.52;2.78;;;11.40;63.00;;;;;;5014198;28;20029;-82
2021/03/26 03:04:08;;;;;;;3.90;2.50;;;11.30;62.90;;;;;;4977079;28;20129;-82
2021/03/26 03:06:43;;;;;;;5.40;2.42;;;11.30;63.00;;;;;;4993114;28;20042;-81
2021/03/26 03:09:38;;;;;;;4.57;2.65;;;11.30;63.10;;;;;;4994033;28;20482;-82
2021/03/26 03:12:13;;;;;;;5.75;2.38;;;11.30;63.10;;;;;;4994481;28;20027;-82
2021/03/26 03:15:01;;;;;;;3.20;2.03;;;11.20;63.00;;;;;;5009621;28;20096;-81
2021/03/26 03:17:41;;;;;;;4.75;2.47;;;11.20;63.10;;;;;;5009801;28;20117;-81
2021/03/26 03:20:26;;;;;;;4.32;2.08;;;11.20;63.20;;;;;;5009227;28;20080;-82
2021/03/26 03:23:04;;;;;;;3.83;2.47;;;11.20;63.20;;;;;;4994240;28;20405;-82
2021/03/26 03:25:42;;;;;;;5.60;2.67;;;11.20;63.30;;;;;;4978167;28;20022;-82
2021/03/26 03:28:12;;;;;;;5.63;2.63;;;11.20;63.30;;;;;;5008990;28;20034;-82
2021/03/26 03:31:04;;;;;;;13.93;2.22;;;11.20;63.30;;;;;;4977094;28;20143;-82
2021/03/26 03:33:47;;;;;;;6.28;2.50;;;11.20;63.40;;;;;;4992511;28;20034;-82
2021/03/26 03:36:23;;;;;;;5.10;2.45;;;11.10;63.20;;;;;;4992446;28;20064;-82
2021/03/26 03:38:59;;;;;;;5.00;2.58;;;11.20;63.40;;;;;;5014239;28;20118;-82
2021/03/26 03:41:55;;;;;;;4.22;2.38;;;11.20;63.40;;;;;;5038196;28;20018;-82
2021/03/26 03:44:26;;;;;;;8.20;3.22;;;11.20;63.40;;;;;;5021344;28;20033;-81
2021/03/26 03:47:01;;;;;;;4.38;2.58;;;11.10;63.30;;;;;;5021313;28;20403;-82
2021/03/26 03:49:53;;;;;;;4.68;2.45;;;11.10;63.30;;;;;;5013678;28;20258;-82
2021/03/26 03:52:22;;;;;;;;;;;11.10;63.40;;;;;;5014862;28;20105;-81
2021/03/26 03:55:00;;;;;;;3.78;2.13;;;11.10;63.30;;;;;;5012201;28;19917;-82
2021/03/26 03:57:48;;;;;;;6.88;2.42;;;11.10;63.30;;;;;;5012124;28;20041;-81
2021/03/26 04:00:23;;;;;;;8.15;2.60;;;11.00;63.20;;;;;;5012281;28;20029;-82
2021/03/26 04:03:14;;;;;;;5.38;2.50;;;11.00;63.20;;;;;;5011610;28;20030;-82
2021/03/26 04:05:53;;;;;;;6.97;2.90;;;11.00;63.30;;;;;;5011814;28;20057;-81
2021/03/26 04:08:42;;;;;;;5.07;2.72;;;10.90;63.20;;;;;;5011444;28;20088;-82
2021/03/26 04:11:33;;;;;;;5.88;2.50;;;10.90;63.30;;;;;;5011751;28;20074;-82
2021/03/26 04:14:19;;;;;;;7.37;2.93;;;10.90;63.40;;;;;;5011799;28;20038;-81
2021/03/26 04:16:51;;;;;;;6.00;3.05;;;10.90;63.40;;;;;;5011887;28;20267;-82
2021/03/26 04:19:26;;;;;;;5.45;2.75;;;10.80;63.30;;;;;;5011444;28;20030;-81
2021/03/26 04:22:02;;;;;;;7.32;3.10;;;10.90;63.50;;;;;;5011450;28;20026;-80
2021/03/26 04:24:54;;;;;;;7.10;2.80;;;10.80;63.40;;;;;;5011500;28;20042;-81
2021/03/26 04:27:47;;;;;;;6.70;2.42;;;10.90;63.60;;;;;;5011559;28;20469;-81
2021/03/26 04:30:37;;;;;;;5.32;3.05;;;10.80;63.40;;;;;;5011352;28;20042;-81
2021/03/26 04:33:17;;;;;;;5.50;2.35;;;10.90;63.70;;;;;;5011033;28;20125;-81
2021/03/26 04:35:45;;;;;;;8.38;3.40;;;10.80;63.40;;;;;;5011079;28;20030;-81
2021/03/26 04:38:26;;;;;;;10.05;2.72;;;10.80;63.50;;;;;;5011276;28;20452;-81
2021/03/26 04:41:01;;;;;;;8.43;3.22;;;10.80;63.60;;;;;;5011979;28;20045;-81
2021/03/26 04:43:40;;;;;;;3.13;2.05;;;10.80;63.60;;;;;;5010815;28;20041;-81
2021/03/26 04:46:28;;;;;;;6.07;2.53;;;10.80;63.70;;;;;;5011126;28;20041;-80
2021/03/26 04:49:38;;;;;;;9.02;2.83;;;10.80;63.70;;;;;;5012416;28;20393;-81
2021/03/26 04:52:29;;;;;;;4.93;2.38;;;10.70;63.50;;;;;;5011277;28;20148;-81
2021/03/26 04:55:02;;;;;;;6.78;3.03;;;10.70;63.60;;;;;;5012120;28;20500;-80
2021/03/26 04:58:03;;;;;;;5.70;2.53;;;10.70;63.60;;;;;;5012607;28;20425;-80
2021/03/26 05:01:11;;;;;;;8.23;2.85;;;10.60;63.50;;;;;;5011306;28;20038;-80
2021/03/26 05:03:49;;;;;;;4.53;2.47;;;10.60;63.40;;;;;;5010683;28;20045;-80
2021/03/26 05:06:22;;;;;;;5.38;3.20;;;10.60;63.50;;;;;;4994098;28;20109;-80
2021/03/26 05:09:15;;;;;;;5.10;2.60;;;10.60;63.60;;;;;;5011156;28;20033;-81
2021/03/26 05:12:08;;;;;;;5.78;2.72;;;10.60;63.70;;;;;;5012152;28;20028;-81
2021/03/26 05:14:51;;;;;;;4.45;2.70;;;10.60;63.70;;;;;;5010438;28;20107;-81
2021/03/26 05:17:43;;;;;;;7.78;3.50;;;10.60;63.80;;;;;;5010785;28;20033;-80
2021/03/26 05:20:39;;;;;;;5.20;2.72;;;10.60;63.80;;;;;;5008842;28;20081;-80
2021/03/26 05:23:44;;;;;;;5.28;2.28;;;10.60;63.80;;;;;;5010311;28;20398;-81
2021/03/26 05:26:45;;;;;;;9.15;2.95;;;10.50;63.70;;;;;;4972574;28;20011;-81
2021/03/26 05:29:35;;;;;;;8.15;3.15;;;10.50;63.60;;;;;;4964726;28;20042;-81
2021/03/26 05:32:42;;;;;;;6.13;2.60;;;10.50;63.70;;;;;;4970300;28;20398;-81
2021/03/26 05:35:59;;;;;;;6.97;2.85;;;10.50;63.80;;;;;;4961413;28;20073;-80
2021/03/26 05:38:53;;;;;;;6.45;2.97;;;10.50;63.90;;;;;;5011807;28;20038;-81
2021/03/26 05:41:53;;;;;;;6.13;2.53;;;10.40;63.70;;;;;;5010711;28;20501;-81
2021/03/26 05:44:53;;;;;;;7.03;2.97;;;10.40;63.70;;;;;;5011992;28;20038;-82
2021/03/26 05:47:57;;;;;;;6.18;2.92;;;10.40;63.80;;;;;;5011590;28;20046;-81
2021/03/26 05:50:32;;;;;;;6.32;2.50;;;10.40;63.80;;;;;;4994823;28;20493;-81
2021/03/26 05:53:24;;;;;;;4.45;2.83;;;10.40;63.80;;;;;;4994768;28;20492;-81
2021/03/26 05:56:35;;;;;;;7.00;2.95;;;10.40;63.90;;;;;;5011945;28;20393;-81
2021/03/26 05:59:08;;;;;;;10.23;3.38;;;10.40;63.90;;;;;;4995315;28;20022;-82
2021/03/26 06:02:02;;;;;;;6.78;2.47;;;10.40;63.90;;;;;;5011243;28;20022;-83
2021/03/26 06:05:16;;;;;;;7.60;2.72;;;10.40;64.10;;;;;;4992203;28;20070;-82
2021/03/26 06:08:25;;;;;;;4.88;2.70;;;10.40;64.00;;;;;;5014214;28;20053;-81
2021/03/26 06:11:18;;;;;;;7.57;2.85;;;10.40;64.10;;;;;;5035054;28;20022;-81
2021/03/26 06:14:28;;;;;;;6.53;2.95;;;10.40;64.00;;;;;;5000586;28;20188;-81
2021/03/26 06:17:52;;;;;;;6.10;3.03;;;10.40;64.10;;;;;;5012100;28;20041;-82
2021/03/26 06:20:56;;;;;;;10.57;3.70;;;10.40;64.10;;;;;;4991781;28;20050;-85
2021/03/26 06:24:11;;;;;;;6.28;2.20;;;10.50;64.10;;;;;;4990760;28;20046;-81
2021/03/26 06:26:54;;;;;;;9.65;2.45;;;10.50;64.10;;;;;;4989738;28;20359;-84
2021/03/26 06:29:44;;;;;;;6.50;2.83;;;10.50;64.10;;;;;;4989602;28;20061;-81
2021/03/26 06:32:17;;;;;;;11.57;3.28;;;10.50;64.20;;;;;;4993691;28;20030;-80
2021/03/26 06:35:10;;;;;;;9.02;3.15;;;10.50;64.10;;;;;;5001312;28;20065;-81
2021/03/26 06:38:11;;;;;;;8.15;3.25;;;10.60;64.40;;;;;;5006845;28;20061;-80
2021/03/26 06:40:55;;;;;;;6.00;3.50;;;10.60;65.00;;;;;;4988335;28;20077;-80
2021/03/26 06:43:42;;;;;;;12.43;3.53;;;10.80;65.70;;;;;;5001304;28;20485;-80
2021/03/26 06:46:44;;;;;;;8.10;3.17;;;10.90;65.90;;;;;;5009426;28;20046;-81
2021/03/26 06:49:37;;;;;;;20.50;4.18;;;11.00;66.10;;;;;;5008148;28;20659;-80
2021/03/26 06:52:33;;;;;;;11.45;4.25;;;11.10;66.20;;;;;;5007970;28;20493;-81
2021/03/26 06:55:13;;;;;;;9.10;3.38;;;11.20;66.20;;;;;;5009579;28;20079;-80
2021/03/26 06:58:00;;;;;;;12.43;3.90;;;11.30;66.20;;;;;;5004266;28;20243;-81
2021/03/26 07:00:56;;;;;;;8.65;3.88;;;11.30;66.30;;;;;;5005930;28;20026;-81
2021/03/26 07:03:50;;;;;;;14.73;4.63;;;11.40;66.30;;;;;;5008749;28;20448;-81
2021/03/26 07:06:34;;;;;;;10.93;4.40;;;11.50;66.40;;;;;;5009243;28;20312;-82
2021/03/26 07:09:16;;;;;;;9.40;3.20;;;11.60;66.40;;;;;;5007283;28;20076;-82
2021/03/26 07:11:55;;;;;;;11.82;4.07;;;11.70;66.50;;;;;;5008934;28;20056;-84
2021/03/26 07:14:40;;;;;;;10.73;4.07;;;11.80;66.50;;;;;;5008829;28;20822;-85
2021/03/26 07:17:28;;;;;;;12.95;4.85;;;11.80;66.60;;;;;;5009674;28;20030;-85
2021/03/26 07:20:20;;;;;;;9.35;3.60;;;11.90;66.70;;;;;;4990511;28;20591;-86
2021/03/26 07:23:22;;;;;;;8.85;2.97;;;12.00;66.90;;;;;;4994583;28;20034;-83
2021/03/26 07:26:06;;;;;;;10.82;4.20;;;12.00;66.80;;;;;;4988015;28;20038;-86
2021/03/26 07:28:47;;;;;;;10.77;4.43;;;12.10;66.80;;;;;;4984605;28;20021;-83
2021/03/26 07:31:53;;;;;;;15.73;4.57;;;12.10;66.70;;;;;;4990849;28;20052;-83
2021/03/26 07:34:25;;;;;;;8.45;3.92;;;12.20;66.90;;;;;;4991757;28;20398;-86
2021/03/26 07:37:09;;;;;;;13.43;4.78;;;12.30;66.80;;;;;;5007266;28;20405;-83
2021/03/26 07:39:45;;;;;;;;;;;12.30;66.80;;;;;;4991718;28;20125;-83
2021/03/26 07:42:35;;;;;;;12.65;4.47;;;12.40;66.90;;;;;;4987433;28;19920;-85
2021/03/26 07:45:42;;;;;;;15.82;4.85;;;12.40;66.80;;;;;;4986455;28;20591;-86
2021/03/26 07:48:17;;;;;;;13.77;4.68;;;12.50;66.90;;;;;;4992204;28;20592;-81
2021/03/26 07:51:00;;;;;;;8.90;3.67;;;12.60;66.90;;;;;;5009032;28;20389;-81
2021/03/26 07:53:41;;;;;;;15.30;4.80;;;12.70;67.10;;;;;;4994835;28;20421;-80
2021/03/26 07:56:32;;;;;;;8.18;3.80;;;12.70;67.00;;;;;;4989446;28;20142;-83
2021/03/26 07:59:17;;;;;;;12.10;4.63;;;12.80;67.10;;;;;;4988805;28;20038;-84
2021/03/26 08:02:10;;;;;;;11.30;4.20;;;12.80;67.00;;;;;;5008822;28;20044;-84
2021/03/26 08:04:42;;;;;;;8.80;3.40;;;12.90;67.20;;;;;;5007173;28;20033;-87
2021/03/26 08:07:48;;;;;;;10.75;3.72;;;13.00;67.30;;;;;;5007656;28;20030;-84
2021/03/26 08:10:35;;;;;;;15.20;4.80;;;13.00;67.30;;;;;;4989796;28;20164;-82
2021/03/26 08:13:12;;;;;;;8.70;3.15;;;13.20;67.50;;;;;;4989750;28;20129;-83
2021/03/26 08:16:00;;;;;;;14.52;4.95;;;13.30;67.40;;;;;;4991340;28;20490;-87
2021/03/26 08:18:53;;;;;;;17.05;6.28;;;13.40;67.40;;;;;;5001267;28;20034;-82
2021/03/26 08:21:25;;;;;;;13.80;5.25;;;13.40;67.30;;;;;;4988477;28;20524;-83
2021/03/26 08:24:14;;;;;;;13.57;5.32;;;13.50;67.50;;;;;;5003471;28;20041;-82
2021/03/26 08:27:06;;;;;;;14.80;5.60;;;13.50;67.70;;;;;;4990284;28;20037;-83
2021/03/26 08:30:10;;;;;;;10.45;5.60;;;13.50;67.70;;;;;;5001984;28;20047;-85
2021/03/26 08:32:48;;;;;;;15.90;5.78;;;13.50;67.70;;;;;;5008604;28;20037;-83
2021/03/26 08:35:31;;;;;;;16.27;5.32;;;13.50;67.60;;;;;;5006370;28;20029;-87
2021/03/26 08:38:00;;;;;;;13.80;4.45;;;13.40;67.50;;;;;;5007910;28;20038;-90
2021/03/26 08:40:45;;;;;;;10.40;4.88;;;13.40;67.50;;;;;;4998973;28;20061;-88
2021/03/26 08:43:13;;;;;;;14.60;5.22;;;13.40;67.50;;;;;;5022100;28;20037;-87
2021/03/26 08:45:46;;;;;;;16.08;4.38;;;13.40;67.50;;;;;;4996568;28;20086;-87
2021/03/26 08:48:58;;;;;;;15.00;4.50;;;13.30;67.40;;;;;;5010353;28;20030;-86
2021/03/26 08:51:49;;;;;;;15.48;4.72;;;13.30;67.50;;;;;;4966213;28;20180;-85
2021/03/26 08:54:51;;;;;;;13.60;4.93;;;13.30;67.50;;;;;;4994114;28;20041;-87
2021/03/26 08:57:35;;;;;;;12.32;4.32;;;13.30;67.50;;;;;;5011374;28;20030;-92
2021/03/26 09:00:13;;;;;;;9.18;3.85;;;13.20;67.40;;;;;;5012080;28;20042;-92
2021/03/26 09:02:51;;;;;;;13.63;3.80;;;13.20;67.40;;;;;;5011514;28;20037;-94
2021/03/26 09:05:35;;;;;;;13.07;4.10;;;13.20;67.40;;;;;;5011219;28;20492;-91
2021/03/26 09:08:09;;;;;;;9.65;3.90;;;13.20;67.40;;;;;;5008986;28;20558;-93
2021/03/26 09:10:59;;;;;;;9.23;3.40;;;13.20;67.40;;;;;;5008790;28;20033;-81
2021/03/26 09:13:58;;;;;;;9.70;3.83;;;13.30;67.50;;;;;;5009401;28;20273;-89
2021/03/26 09:16:32;;;;;;;16.35;4.18;;;13.20;67.30;;;;;;5009829;28;20563;-93
2021/03/26 09:19:01;;;;;;;;;;;13.30;67.30;;;;;;5015042;28;20030;-89
2021/03/26 09:21:46;;;;;;;7.10;2.95;;;13.30;67.20;;;;;;5017340;28;20361;-82
2021/03/26 09:24:15;;;;;;;7.80;3.17;;;13.30;67.20;;;;;;5018555;28;20057;-87
2021/03/26 09:27:20;;;;;;;11.65;3.85;;;13.30;67.20;;;;;;5015969;28;20099;-85
2021/03/26 09:30:00;;;;;;;8.32;3.50;;;13.30;67.30;;;;;;5025354;28;20041;-79
2021/03/26 09:32:44;;;;;;;8.98;3.78;;;13.30;67.20;;;;;;5016090;28;20133;-83
2021/03/26 09:35:17;;;;;;;5.22;2.85;;;13.30;67.20;;;;;;4983593;28;20038;-83
2021/03/26 09:37:53;;;;;;;5.88;3.00;;;13.40;67.30;;;;;;4995559;28;20060;-94
2021/03/26 09:40:46;;;;;;;8.43;3.13;;;13.30;67.10;;;;;;4996867;28;20056;-87
2021/03/26 09:43:29;;;;;;;7.20;3.30;;;13.30;67.00;;;;;;5012631;28;20049;-85
2021/03/26 09:46:17;;;;;;;6.90;2.72;;;13.30;67.00;;;;;;4996246;28;20389;-83
2021/03/26 09:49:08;;;;;;;9.20;3.08;;;13.30;67.10;;;;;;5005022;28;20498;-85
2021/03/26 09:51:37;;;;;;;5.78;2.28;;;13.30;67.10;;;;;;4995165;28;20034;-90
2021/03/26 09:54:14;;;;;;;5.57;2.70;;;13.30;67.00;;;;;;5010990;28;20116;-84
2021/03/26 09:56:48;;;;;;;8.95;3.38;;;13.30;67.10;;;;;;4979337;28;20037;-86
2021/03/26 09:59:40;;;;;;;7.85;2.72;;;13.40;67.20;;;;;;5012600;28;20064;-87
2021/03/26 10:02:12;;;;;;;9.25;2.58;;;13.40;67.10;;;;;;5013130;28;20029;-91
2021/03/26 10:04:50;;;;;;;10.35;3.05;;;13.40;67.10;;;;;;5010880;28;20038;-92
2021/03/26 10:07:35;;;;;;;10.75;2.33;;;13.40;67.00;;;;;;5013096;28;20129;-88
2021/03/26 10:13:18;;;;;;;5.57;2.50;;;13.50;67.00;;;;;;5011708;28;20029;-89
2021/03/26 10:15:56;;;;;;;12.40;3.45;;;13.60;67.00;;;;;;4989551;28;20038;-88
2021/03/26 10:18:27;;;;;;;12.68;3.40;;;13.60;66.90;;;;;;5005832;28;20584;-91
2021/03/26 10:21:34;;;;;;;6.95;2.83;;;13.70;67.00;;;;;;4990827;28;20170;-88
2021/03/26 10:24:30;;;;;;;5.43;2.20;;;13.70;67.00;;;;;;4987452;28;20473;-84
2021/03/26 10:27:20;;;;;;;11.05;3.17;;;13.70;66.90;;;;;;4989392;28;20045;-85
2021/03/26 10:30:11;;;;;;;10.32;3.40;;;13.80;67.00;;;;;;5008055;28;20122;-91
2021/03/26 10:32:39;;;;;;;11.75;3.38;;;13.90;67.10;;;;;;5010807;28;20040;-91
2021/03/26 10:35:24;;;;;;;7.15;2.95;;;13.90;66.90;;;;;;4993474;28;20030;-86
2021/03/26 10:37:53;;;;;;;10.82;3.38;;;14.00;67.10;;;;;;5005062;28;20386;-84
2021/03/26 10:40:44;;;;;;;12.93;3.42;;;14.10;67.30;;;;;;5008224;28;20038;-83
2021/03/26 10:43:19;;;;;;;10.05;3.30;;;14.10;67.30;;;;;;5000132;28;20038;-91
2021/03/26 10:46:07;;;;;;;9.95;3.15;;;14.30;67.50;;;;;;4991325;28;20092;-85
2021/03/26 10:48:42;;;;;;;10.20;3.38;;;14.40;67.50;;;;;;4999694;28;20026;-90
2021/03/26 10:51:35;;;;;;;11.18;3.22;;;14.40;67.30;;;;;;5011268;28;20030;-92
2021/03/26 10:54:40;;;;;;;10.23;3.42;;;14.50;67.30;;;;;;5009937;28;20200;-83
2021/03/26 10:57:24;;;;;;;8.63;2.70;;;14.60;67.20;;;;;;5011274;28;20179;-88
2021/03/26 10:59:53;;;;;;;11.55;2.53;;;14.70;67.20;;;;;;4994249;28;20089;-85
2021/03/26 11:02:28;;;;;;;12.40;3.60;;;14.80;67.30;;;;;;4975134;28;20049;-88
2021/03/26 11:05:08;;;;;;;13.85;3.15;;;14.90;67.30;;;;;;4990786;28;20162;-90
2021/03/26 11:07:42;;;;;;;9.55;2.95;;;15.00;67.40;;;;;;4989436;28;20039;-83
2021/03/26 11:10:16;;;;;;;11.27;2.95;;;15.10;67.40;;;;;;4989516;28;20026;-86
2021/03/26 11:12:53;;;;;;;11.15;3.42;;;15.20;67.30;;;;;;4999146;28;20029;-84
2021/03/26 11:15:34;;;;;;;13.15;4.13;;;15.30;67.90;;;;;;5009540;28;20033;-86
2021/03/26 11:18:29;;;;;;;8.63;2.70;;;15.30;67.10;;;;;;5010485;28;20022;-86
2021/03/26 11:21:02;;;;;;;10.55;3.00;;;15.40;67.10;;;;;;4995184;28;20034;-88
2021/03/26 11:23:37;;;;;;;9.13;3.25;;;15.50;67.10;;;;;;4994652;28;20046;-84
2021/03/26 11:26:03;;;;;;;7.50;2.83;;;15.50;67.00;;;;;;5025393;28;20038;-80
2021/03/26 11:28:29;;;;;;;9.25;2.50;;;15.60;67.00;;;;;;4992126;28;20097;-83
2021/03/26 11:31:21;;;;;;;14.43;4.10;;;15.70;67.00;;;;;;5008930;28;20041;-82
2021/03/26 11:33:53;;;;;;;11.45;3.50;;;15.80;66.90;;;;;;5008106;28;20160;-80
2021/03/26 11:36:48;;;;;;;9.55;3.20;;;15.80;66.70;;;;;;5014834;28;20034;-82
2021/03/26 11:39:24;;;;;;;;;;;15.80;66.40;;;;;;5018112;28;20028;-82
2021/03/26 11:42:19;;;;;;;11.35;3.05;;;15.80;66.50;;;;;;5032597;28;20310;-82
2021/03/26 11:45:23;;;;;;;9.63;3.15;;;15.80;66.50;;;;;;5010172;28;20103;-82
2021/03/26 11:48:13;;;;;;;6.30;2.42;;;15.90;66.50;;;;;;5014627;28;20254;-82
2021/03/26 11:50:51;;;;;;;6.70;2.33;;;16.10;66.50;;;;;;4990186;28;20034;-82
2021/03/26 11:53:32;;;;;;;6.63;2.42;;;16.10;66.30;;;;;;5000064;28;20457;-82
2021/03/26 11:56:13;;;;;;;7.22;2.85;;;16.20;66.20;;;;;;5008054;28;20048;-81
2021/03/26 11:59:17;;;;;;;7.03;2.67;;;16.20;66.10;;;;;;5001545;28;20545;-82
2021/03/26 12:02:18;;;;;;;7.80;2.30;;;16.30;66.00;;;;;;4972104;28;20564;-81
2021/03/26 12:05:16;;;;;;;7.45;2.70;;;16.40;66.00;;;;;;4971215;28;20611;-82
2021/03/26 12:08:00;;;;;;;5.65;2.50;;;16.50;65.90;;;;;;4999777;28;20452;-82
2021/03/26 12:10:56;;;;;;;5.43;1.92;;;16.50;65.70;;;;;;4988995;28;20061;-81
2021/03/26 12:13:33;;;;;;;6.38;1.95;;;16.60;65.60;;;;;;4978891;28;20040;-83
2021/03/26 12:16:16;;;;;;;6.68;2.55;;;16.60;65.30;;;;;;4988597;28;20394;-82
2021/03/26 12:18:56;;;;;;;5.32;2.22;;;16.60;65.10;;;;;;4999157;28;20038;-82
2021/03/26 12:21:28;;;;;;;10.13;2.28;;;16.60;65.00;;;;;;4988351;28;20409;-83
2021/03/26 12:23:57;;;;;;;3.30;1.73;;;16.60;64.90;;;;;;4988816;28;20145;-83
2021/03/26 12:26:31;;;;;;;6.07;2.08;;;16.60;64.70;;;;;;4970998;28;20030;-83
2021/03/26 12:29:22;;;;;;;6.18;2.40;;;16.50;64.50;;;;;;4998056;28;20103;-83
2021/03/26 12:32:07;;;;;;;6.03;2.45;;;16.50;64.40;;;;;;5007179;28;20057;-84
2021/03/26 12:34:45;;;;;;;7.95;2.45;;;16.50;64.40;;;;;;4971710;28;20037;-85
2021/03/26 12:37:18;;;;;;;6.18;2.58;;;16.50;64.30;;;;;;4986887;28;20026;-82
2021/03/26 12:39:51;;;;;;;10.15;2.35;;;16.60;64.40;;;;;;5003415;28;20037;-86
2021/03/26 12:42:21;;;;;;;8.70;2.63;;;16.60;64.30;;;;;;5004468;28;20495;-84
2021/03/26 12:45:11;;;;;;;8.27;2.22;;;16.70;64.30;;;;;;4987804;28;20177;-85
2021/03/26 12:47:50;;;;;;;12.07;2.42;;;16.60;63.90;;;;;;4967017;28;20043;-86
2021/03/26 12:50:24;;;;;;;7.53;2.30;;;16.60;63.70;;;;;;4988603;28;20437;-84
2021/03/26 12:53:00;;;;;;;8.18;2.80;;;16.60;63.70;;;;;;4993888;28;20037;-84
2021/03/26 12:55:29;;;;;;;4.38;1.98;;;16.50;63.30;;;;;;4990305;28;20030;-86
2021/03/26 12:58:23;;;;;;;6.53;2.35;;;16.40;63.10;;;;;;4981260;28;20033;-85
2021/03/26 13:01:06;;;;;;;6.63;2.08;;;16.40;63.00;;;;;;4971457;28;20081;-85
2021/03/26 13:03:45;;;;;;;6.40;2.30;;;16.40;63.20;;;;;;5000407;28;20045;-84
2021/03/26 13:06:25;;;;;;;8.38;2.60;;;16.30;63.10;;;;;;5007993;28;20475;-84
2021/03/26 13:08:57;;;;;;;10.23;2.88;;;16.30;62.90;;;;;;4998614;28;20066;-85
2021/03/26 13:11:30;;;;;;;6.70;2.47;;;16.30;62.80;;;;;;4986651;28;20030;-86
2021/03/26 13:14:11;;;;;;;9.10;2.23;;;16.20;62.70;;;;;;5001930;28;20029;-85
2021/03/26 13:16:45;;;;;;;8.85;2.25;;;16.20;62.50;;;;;;5007651;28;20421;-85
2021/03/26 13:19:20;;;;;;;;;;;16.20;62.40;;;;;;5010468;28;20048;-85
2021/03/26 13:22:07;;;;;;;5.35;2.30;;;16.20;62.70;;;;;;5006822;28;20056;-84
2021/03/26 13:24:55;;;;;;;7.63;2.53;;;16.20;62.40;;;;;;4986407;28;20045;-85
2021/03/26 13:27:21;;;;;;;6.10;2.70;;;16.20;62.30;;;;;;4985944;28;20084;-85
2021/03/26 13:30:14;;;;;;;6.60;2.78;;;16.20;62.30;;;;;;4986967;28;20114;-87
2021/03/26 13:32:55;;;;;;;7.65;2.35;;;16.30;62.20;;;;;;5006298;28;20879;-85
2021/03/26 13:35:32;;;;;;;11.85;3.03;;;16.20;61.90;;;;;;5004413;28;20042;-86
2021/03/26 13:38:37;;;;;;;5.82;2.63;;;16.30;61.80;;;;;;4999778;28;20018;-87
2021/03/26 13:41:28;;;;;;;4.78;2.35;;;16.40;61.80;;;;;;4992765;28;20357;-86
2021/03/26 13:44:13;;;;;;;8.15;2.28;;;16.60;61.80;;;;;;4990495;28;20502;-85
2021/03/26 13:46:44;;;;;;;8.57;3.07;;;16.70;61.50;;;;;;4988062;28;20046;-85
2021/03/26 13:49:19;;;;;;;5.13;2.28;;;16.80;61.60;;;;;;4997682;28;20037;-86
2021/03/26 13:51:51;;;;;;;6.70;2.80;;;16.90;61.50;;;;;;4990052;28;20030;-85
2021/03/26 13:54:20;;;;;;;4.80;2.58;;;17.00;61.60;;;;;;4988985;28;20027;-84
2021/03/26 13:56:58;;;;;;;7.20;2.35;;;17.10;61.50;;;;;;4987430;28;20552;-84
2021/03/26 13:59:55;;;;;;;4.10;2.33;;;17.10;61.30;;;;;;4998229;28;20073;-84
2021/03/26 14:02:34;;;;;;;11.18;2.88;;;17.20;61.40;;;;;;5004275;28;20633;-85
2021/03/26 14:05:22;;;;;;;4.20;1.80;;;17.20;61.30;;;;;;5006375;28;20065;-86